Time;durP1;ratioP1;P1;durP2;ratioP2;P2;SDS_P1;SDS_P2;PMS_P1;PMS_P2;Temp;Humidity;BMP_temperature;BMP_pressure;BME280_temperature;BME280_humidity;BME280_pressure;Samples;Min_cycle;Max_cycle;Signal;HPM_P1;HPM_P2
2022/11/08 00:01:30;;;;;;;5.93;1.97;;;11.00;99.90;;;;;;6070731;23;20261;-42
2022/11/08 00:03:04;;;;;;;3.87;1.97;;;11.10;99.90;;;;;;6076363;23;20260;-43
2022/11/08 00:13:58;;;;;;;10.27;2.60;;;11.00;99.90;;;;;;6076054;23;20160;-44
2022/11/08 00:16:25;;;;;;;7.17;2.40;;;11.00;99.90;;;;;;6075916;23;20159;-43
2022/11/08 00:18:50;;;;;;;6.50;2.47;;;10.90;99.90;;;;;;6076275;23;20183;-44
2022/11/08 00:21:16;;;;;;;5.43;2.47;;;10.90;99.90;;;;;;6075660;23;20211;-43
2022/11/08 00:23:42;;;;;;;5.77;2.50;;;10.80;99.90;;;;;;6076327;23;20250;-44
2022/11/08 00:26:08;;;;;;;11.60;2.53;;;10.70;99.90;;;;;;6051070;23;20178;-43
2022/11/08 00:28:34;;;;;;;5.40;2.07;;;10.70;99.90;;;;;;6075255;23;20179;-42
2022/11/08 00:31:05;;;;;;;6.57;2.30;;;10.70;99.90;;;;;;6050648;23;20240;-44
2022/11/08 00:33:30;;;;;;;6.10;2.57;;;10.70;99.90;;;;;;6076375;23;20143;-43
2022/11/08 00:36:00;;;;;;;5.30;2.40;;;10.70;99.90;;;;;;6049651;23;20219;-44
2022/11/08 00:38:25;;;;;;;10.17;2.30;;;10.80;99.90;;;;;;6074686;23;20190;-43
2022/11/08 00:40:51;;;;;;;12.03;2.30;;;10.80;99.90;;;;;;6077151;23;20156;-42
2022/11/08 00:43:16;;;;;;;5.73;2.20;;;10.80;99.90;;;;;;6076633;23;20188;-44
2022/11/08 00:45:42;;;;;;;5.53;2.00;;;10.80;99.90;;;;;;6074567;23;20264;-44
2022/11/08 00:48:07;;;;;;;7.80;2.27;;;10.90;99.90;;;;;;6074293;23;20255;-42
2022/11/08 00:50:36;;;;;;;4.43;1.70;;;10.90;99.90;;;;;;6074954;23;20239;-42
2022/11/08 00:53:02;;;;;;;6.93;1.97;;;10.90;99.90;;;;;;6074477;23;20499;-43
2022/11/08 00:55:28;;;;;;;4.80;1.70;;;10.90;99.90;;;;;;6045554;23;20163;-47
2022/11/08 00:57:53;;;;;;;3.27;1.50;;;10.90;99.90;;;;;;6076836;23;20200;-46
2022/11/08 01:00:19;;;;;;;7.73;1.73;;;10.90;99.90;;;;;;6075898;23;20180;-46
2022/11/08 01:02:44;;;;;;;3.90;1.60;;;10.90;99.90;;;;;;6076871;23;20538;-47
2022/11/08 01:05:10;;;;;;;4.60;1.53;;;10.90;99.90;;;;;;6076033;23;20166;-47
2022/11/08 01:07:37;;;;;;;4.67;1.50;;;10.90;99.90;;;;;;6076171;23;20622;-46
2022/11/08 01:10:03;;;;;;;4.63;1.70;;;10.80;99.90;;;;;;6075881;23;20154;-46
2022/11/08 01:12:29;;;;;;;6.13;1.40;;;10.90;99.90;;;;;;6049933;23;20186;-47
2022/11/08 01:14:54;;;;;;;5.60;1.80;;;10.90;99.90;;;;;;6076607;23;20163;-46
2022/11/08 01:17:20;;;;;;;1.97;1.40;;;10.90;99.90;;;;;;6076323;23;20178;-47
2022/11/08 01:19:46;;;;;;;12.80;1.80;;;10.90;99.90;;;;;;6075804;23;20211;-47
2022/11/08 01:22:11;;;;;;;4.90;1.50;;;10.90;99.90;;;;;;6076372;23;20183;-47
2022/11/08 01:24:37;;;;;;;6.63;1.53;;;10.90;99.90;;;;;;6072474;23;20163;-47
2022/11/08 01:27:03;;;;;;;4.13;1.53;;;10.80;99.90;;;;;;6073282;23;20164;-47
2022/11/08 01:29:28;;;;;;;4.30;1.63;;;10.80;99.90;;;;;;6073236;23;20156;-47
2022/11/08 01:31:54;;;;;;;4.50;1.70;;;10.70;99.90;;;;;;6073205;23;20183;-46
2022/11/08 01:34:19;;;;;;;3.50;1.10;;;10.60;99.90;;;;;;6073465;23;20154;-47
2022/11/08 01:36:45;;;;;;;4.27;1.50;;;10.60;99.90;;;;;;6047929;23;20152;-46
2022/11/08 01:39:10;;;;;;;3.27;1.30;;;10.50;99.90;;;;;;6074122;23;20685;-46
2022/11/08 01:41:38;;;;;;;3.07;1.10;;;10.50;99.90;;;;;;6075619;23;20182;-46
2022/11/08 01:44:03;;;;;;;3.83;1.77;;;10.40;99.90;;;;;;6074073;23;20553;-47
2022/11/08 01:46:33;;;;;;;5.73;1.27;;;10.30;99.90;;;;;;6075811;23;20159;-46
2022/11/08 01:49:27;;;;;;;3.30;1.30;;;10.20;99.90;;;;;;6075912;23;20195;-46
2022/11/08 01:52:15;;;;;;;5.77;1.20;;;10.10;99.90;;;;;;6074544;23;20167;-46
2022/11/08 01:55:10;;;;;;;5.40;1.67;;;10.00;99.90;;;;;;6049535;23;20190;-46
2022/11/08 01:57:43;;;;;;;5.00;1.27;;;9.90;99.90;;;;;;6055204;23;20182;-46
2022/11/08 02:00:11;;;;;;;5.63;1.90;;;9.90;99.90;;;;;;6076098;23;20152;-46
2022/11/08 02:02:38;;;;;;;5.17;1.73;;;9.80;99.90;;;;;;6075946;23;20166;-46
2022/11/08 02:05:23;;;;;;;4.87;1.50;;;9.80;99.90;;;;;;6049763;23;20482;-46
2022/11/08 02:08:06;;;;;;;2.57;1.40;;;9.80;99.90;;;;;;6075345;23;20252;-47
2022/11/08 02:10:38;;;;;;;5.27;1.43;;;9.70;99.90;;;;;;6075380;23;20151;-46
2022/11/08 02:13:07;;;;;;;2.57;1.20;;;9.70;99.90;;;;;;6075136;23;20150;-46
2022/11/08 02:15:33;;;;;;;9.60;1.27;;;9.70;99.90;;;;;;6050312;23;20170;-46
2022/11/08 02:17:59;;;;;;;3.60;1.30;;;9.70;99.90;;;;;;6027004;23;20233;-46
2022/11/08 02:20:26;;;;;;;5.43;1.50;;;9.70;99.90;;;;;;6074966;23;20158;-46
2022/11/08 02:23:10;;;;;;;4.33;1.47;;;9.70;99.90;;;;;;6075446;23;20177;-47
2022/11/08 02:25:36;;;;;;;7.27;1.60;;;9.70;99.90;;;;;;6075285;23;20156;-47
2022/11/08 02:28:02;;;;;;;5.10;1.33;;;9.70;99.90;;;;;;6074340;23;20503;-46
2022/11/08 02:30:35;;;;;;;5.80;1.43;;;9.70;99.90;;;;;;6075148;23;20158;-46
2022/11/08 02:33:17;;;;;;;4.50;1.30;;;9.70;99.90;;;;;;6074715;23;20155;-46
2022/11/08 02:35:47;;;;;;;2.70;1.40;;;9.60;99.90;;;;;;6075613;23;20143;-46
2022/11/08 02:38:12;;;;;;;5.23;1.93;;;9.60;99.90;;;;;;6074555;23;20182;-46
2022/11/08 02:40:52;;;;;;;9.00;1.57;;;9.60;99.90;;;;;;6074450;23;20158;-47
2022/11/08 02:43:19;;;;;;;4.83;1.40;;;9.60;99.90;;;;;;6074284;23;20150;-46
2022/11/08 02:45:45;;;;;;;8.93;1.97;;;9.70;99.90;;;;;;6075634;23;20162;-47
2022/11/08 02:48:11;;;;;;;4.37;1.60;;;9.70;99.90;;;;;;6075246;23;20189;-46
2022/11/08 02:50:37;;;;;;;3.60;1.50;;;9.70;99.90;;;;;;6075648;23;20533;-45
2022/11/08 02:53:03;;;;;;;4.40;1.23;;;9.70;99.90;;;;;;6076261;23;20165;-45
2022/11/08 02:55:28;;;;;;;6.47;1.57;;;9.80;99.90;;;;;;6050245;23;20162;-46
2022/11/08 02:57:55;;;;;;;4.50;1.73;;;9.80;99.90;;;;;;6075206;23;20182;-45
2022/11/08 03:00:20;;;;;;;4.53;1.60;;;9.80;99.90;;;;;;6075674;23;20621;-46
2022/11/08 03:02:50;;;;;;;4.43;1.70;;;9.70;99.90;;;;;;6074979;23;20156;-47
2022/11/08 03:05:16;;;;;;;4.70;1.47;;;9.80;99.90;;;;;;6073124;23;20164;-47
2022/11/08 03:07:42;;;;;;;3.80;1.90;;;9.80;99.90;;;;;;6072999;23;20555;-47
2022/11/08 03:10:09;;;;;;;3.83;1.67;;;9.80;99.90;;;;;;6072624;23;20253;-47
2022/11/08 03:12:35;;;;;;;7.57;1.80;;;9.90;99.90;;;;;;6071912;23;20281;-46
2022/11/08 03:15:01;;;;;;;6.20;2.13;;;9.80;99.90;;;;;;6072033;23;20618;-47
2022/11/08 03:17:26;;;;;;;5.57;2.00;;;9.90;99.90;;;;;;6074452;23;20256;-45
2022/11/08 03:19:52;;;;;;;5.00;2.20;;;10.00;99.90;;;;;;6075411;23;20151;-46
2022/11/08 03:22:18;;;;;;;9.43;1.93;;;10.10;99.90;;;;;;6055074;23;20242;-46
2022/11/08 03:24:44;;;;;;;6.33;2.30;;;10.10;99.90;;;;;;6074518;23;20171;-47
2022/11/08 03:27:09;;;;;;;7.87;1.90;;;10.20;99.90;;;;;;6074994;23;20215;-45
2022/11/08 03:29:35;;;;;;;3.97;1.93;;;10.20;99.90;;;;;;6075168;23;20165;-48
2022/11/08 03:32:00;;;;;;;4.90;2.10;;;10.20;99.90;;;;;;6096859;23;20185;-43
2022/11/08 03:34:26;;;;;;;6.33;2.63;;;10.40;99.90;;;;;;6075341;23;20190;-42
2022/11/08 03:36:52;;;;;;;4.17;1.73;;;10.30;99.90;;;;;;6075173;23;20161;-43
2022/11/08 03:39:17;;;;;;;7.13;2.50;;;10.40;99.90;;;;;;6074808;23;20195;-43
2022/11/08 03:41:43;;;;;;;7.50;2.40;;;10.40;99.90;;;;;;6074589;23;20164;-44
2022/11/08 03:44:09;;;;;;;4.77;1.90;;;10.40;99.90;;;;;;6097505;23;20163;-43
2022/11/08 03:46:34;;;;;;;8.10;1.93;;;10.40;99.90;;;;;;6075423;23;20234;-44
2022/11/08 03:49:00;;;;;;;4.80;2.00;;;10.40;99.90;;;;;;6073501;23;20185;-42
2022/11/08 03:51:25;;;;;;;7.47;2.13;;;10.40;99.90;;;;;;6074240;23;20177;-44
2022/11/08 03:53:51;;;;;;;3.07;1.83;;;10.40;99.90;;;;;;6074695;23;20162;-43
2022/11/08 03:56:17;;;;;;;8.33;2.33;;;10.40;99.90;;;;;;6073792;23;20222;-43
2022/11/08 03:58:42;;;;;;;12.00;2.40;;;10.40;99.90;;;;;;6074266;23;20206;-43
2022/11/08 04:01:08;;;;;;;4.97;2.03;;;10.40;99.90;;;;;;6074904;23;20533;-44
2022/11/08 04:03:33;;;;;;;7.33;2.10;;;10.40;99.90;;;;;;6074581;23;20177;-44
2022/11/08 04:06:00;;;;;;;7.13;2.17;;;10.40;99.90;;;;;;6074385;23;20159;-44
2022/11/08 04:08:27;;;;;;;4.80;1.97;;;10.30;99.90;;;;;;6076735;23;20179;-43
2022/11/08 04:10:54;;;;;;;4.43;1.70;;;10.30;99.90;;;;;;6074527;23;20701;-44
2022/11/08 04:16:05;;;;;;;4.37;1.70;;;10.30;99.90;;;;;;6075256;23;20157;-44
2022/11/08 04:21:20;;;;;;;6.60;2.20;;;10.30;99.90;;;;;;6078153;23;20220;-41
2022/11/08 04:23:47;;;;;;;5.43;2.13;;;10.20;99.90;;;;;;6076327;23;20171;-42
2022/11/08 04:26:13;;;;;;;4.97;1.90;;;10.20;99.90;;;;;;6075082;23;20238;-42
2022/11/08 04:28:40;;;;;;;3.03;1.33;;;10.10;99.90;;;;;;6076688;23;20231;-43
2022/11/08 04:31:12;;;;;;;3.50;1.70;;;10.20;99.90;;;;;;6076492;23;20180;-43
2022/11/08 04:33:37;;;;;;;5.03;2.00;;;10.10;99.90;;;;;;6075618;23;20270;-43
2022/11/08 04:36:07;;;;;;;1.93;1.40;;;10.20;99.90;;;;;;6076572;23;20159;-44
2022/11/08 04:38:33;;;;;;;3.17;1.60;;;10.20;99.90;;;;;;6050389;23;20735;-44
2022/11/08 04:41:07;;;;;;;5.07;1.80;;;10.10;99.90;;;;;;6075517;23;20504;-44
2022/11/08 04:43:33;;;;;;;4.67;1.53;;;10.10;99.90;;;;;;6050699;23;20166;-41
2022/11/08 04:46:04;;;;;;;2.50;1.30;;;10.20;99.90;;;;;;6050816;23;20163;-43
2022/11/08 04:48:30;;;;;;;5.17;1.63;;;10.20;99.90;;;;;;6075637;23;20183;-42
2022/11/08 04:51:02;;;;;;;5.40;1.73;;;10.20;99.90;;;;;;6050067;23;20242;-44
2022/11/08 04:53:27;;;;;;;7.40;2.33;;;10.20;99.90;;;;;;6075902;23;20166;-42
2022/11/08 04:56:02;;;;;;;5.37;2.17;;;10.30;99.90;;;;;;6075011;23;20487;-43
2022/11/08 04:58:33;;;;;;;6.67;2.17;;;10.20;99.90;;;;;;6075776;23;20182;-45
2022/11/08 05:01:00;;;;;;;3.83;2.00;;;10.20;99.90;;;;;;6075440;23;20152;-43
2022/11/08 05:03:25;;;;;;;3.90;1.50;;;10.20;99.90;;;;;;6048948;23;20595;-42
2022/11/08 05:05:51;;;;;;;4.10;1.77;;;10.20;99.90;;;;;;6074043;23;20186;-44
2022/11/08 05:08:17;;;;;;;4.67;1.57;;;10.20;99.90;;;;;;6074347;23;20232;-43
2022/11/08 05:10:42;;;;;;;4.63;1.80;;;10.20;99.90;;;;;;6074785;23;20650;-42
2022/11/08 05:13:08;;;;;;;4.63;1.80;;;10.20;99.90;;;;;;6048819;23;20500;-44
2022/11/08 05:15:34;;;;;;;5.80;2.13;;;10.60;99.90;;;;;;6073999;23;20160;-44
2022/11/08 05:18:00;;;;;;;5.17;2.30;;;10.10;99.90;;;;;;6072580;23;20227;-43
2022/11/08 05:23:25;;;;;;;3.47;1.67;;;10.10;99.90;;;;;;6072672;23;20645;-44
2022/11/08 05:25:56;;;;;;;7.63;2.10;;;10.00;99.90;;;;;;6072444;23;20154;-41
2022/11/08 05:28:22;;;;;;;6.37;2.20;;;10.00;99.90;;;;;;6070675;23;20238;-44
2022/11/08 05:30:55;;;;;;;5.00;1.73;;;10.00;99.90;;;;;;6074558;23;20176;-48
2022/11/08 05:33:20;;;;;;;3.37;1.50;;;10.00;99.90;;;;;;6074691;23;20156;-48
2022/11/08 05:35:47;;;;;;;5.10;1.93;;;10.00;99.90;;;;;;6049600;23;20209;-48
2022/11/08 05:38:13;;;;;;;5.03;1.90;;;10.00;99.90;;;;;;6074535;23;20651;-48
2022/11/08 05:40:38;;;;;;;5.40;1.90;;;10.10;99.90;;;;;;6073800;23;20166;-48
2022/11/08 05:43:04;;;;;;;4.43;1.87;;;10.00;99.90;;;;;;6074987;23;20537;-48
2022/11/08 05:45:30;;;;;;;3.87;1.90;;;10.10;99.90;;;;;;6048837;23;20248;-48
2022/11/08 05:47:56;;;;;;;2.67;1.30;;;10.10;99.90;;;;;;6049226;23;20175;-48
2022/11/08 05:50:23;;;;;;;4.67;1.70;;;10.10;99.90;;;;;;6049722;23;20224;-47
2022/11/08 05:52:52;;;;;;;5.00;2.53;;;10.00;99.90;;;;;;6074427;23;20173;-47
2022/11/08 05:55:18;;;;;;;3.03;2.07;;;10.00;99.90;;;;;;6073402;23;20163;-48
2022/11/08 05:57:43;;;;;;;1.80;1.63;;;10.10;99.90;;;;;;6048375;23;20286;-48
2022/11/08 06:00:10;;;;;;;2.33;1.63;;;10.00;99.90;;;;;;6073668;23;20579;-48
2022/11/08 06:02:36;;;;;;;3.37;1.67;;;10.10;99.90;;;;;;6074052;23;20240;-48
2022/11/08 06:05:08;;;;;;;6.77;2.10;;;10.10;99.90;;;;;;6074017;23;20156;-48
2022/11/08 06:07:34;;;;;;;8.07;2.37;;;10.10;99.90;;;;;;6047981;23;20191;-48
2022/11/08 06:09:59;;;;;;;7.27;1.83;;;10.10;99.90;;;;;;6073807;23;20164;-48
2022/11/08 06:12:25;;;;;;;4.00;1.77;;;10.10;99.90;;;;;;6074148;23;20194;-48
2022/11/08 06:14:51;;;;;;;2.67;1.73;;;10.00;99.90;;;;;;6073565;23;20140;-48
2022/11/08 06:17:16;;;;;;;8.13;2.23;;;9.90;99.90;;;;;;6048955;23;20189;-48
2022/11/08 06:19:42;;;;;;;3.93;2.10;;;10.00;99.90;;;;;;6048408;23;20690;-48
2022/11/08 06:22:08;;;;;;;4.30;2.00;;;10.00;99.90;;;;;;6074605;23;20172;-48
2022/11/08 06:24:33;;;;;;;11.43;2.90;;;10.00;99.90;;;;;;6075268;23;20622;-48
2022/11/08 06:26:59;;;;;;;5.57;2.63;;;10.00;99.90;;;;;;6074121;23;20155;-48
2022/11/08 06:29:25;;;;;;;8.97;2.33;;;9.90;99.90;;;;;;6048462;23;20171;-48
2022/11/08 06:31:51;;;;;;;3.00;1.60;;;9.90;99.90;;;;;;6074518;23;20188;-47
2022/11/08 06:34:17;;;;;;;2.50;1.47;;;9.90;99.90;;;;;;6073486;23;20180;-48
2022/11/08 06:36:45;;;;;;;7.13;2.40;;;9.90;99.90;;;;;;6074340;23;20229;-48
2022/11/08 06:39:11;;;;;;;4.40;2.10;;;9.90;99.90;;;;;;6072947;23;20643;-48
2022/11/08 06:41:37;;;;;;;2.93;2.00;;;9.80;99.90;;;;;;6073363;23;20166;-48
2022/11/08 06:44:03;;;;;;;5.23;2.20;;;9.80;99.90;;;;;;6074295;23;20608;-48
2022/11/08 06:46:29;;;;;;;4.73;2.10;;;9.90;99.90;;;;;;6024505;23;20622;-48
2022/11/08 06:48:55;;;;;;;5.53;2.33;;;9.80;99.90;;;;;;6046882;23;20245;-48
2022/11/08 06:51:21;;;;;;;5.10;2.13;;;9.80;99.90;;;;;;6043770;23;20646;-48
2022/11/08 06:53:47;;;;;;;5.43;2.30;;;9.80;99.90;;;;;;6069332;23;20156;-48
2022/11/08 06:56:13;;;;;;;5.53;2.10;;;9.80;99.90;;;;;;6068708;23;20172;-47
2022/11/08 06:58:39;;;;;;;3.47;1.97;;;9.80;99.90;;;;;;6068984;23;20547;-48
2022/11/08 07:01:06;;;;;;;3.63;2.00;;;9.80;99.90;;;;;;6043341;23;20176;-48
2022/11/08 07:03:32;;;;;;;3.43;2.00;;;9.80;99.90;;;;;;6044700;23;20166;-48
2022/11/08 07:06:01;;;;;;;6.50;2.50;;;9.80;99.90;;;;;;6046783;23;20198;-48
2022/11/08 07:08:27;;;;;;;3.63;2.20;;;9.80;99.90;;;;;;6047209;23;20248;-48
2022/11/08 07:10:53;;;;;;;3.60;1.60;;;9.90;99.90;;;;;;6074276;23;20190;-48
2022/11/08 07:13:19;;;;;;;4.93;2.50;;;9.90;99.90;;;;;;6047308;23;20246;-49
2022/11/08 07:15:46;;;;;;;4.37;2.60;;;9.90;99.90;;;;;;6047044;23;20159;-48
2022/11/08 07:18:14;;;;;;;4.83;2.27;;;9.90;99.90;;;;;;6047001;23;20647;-48
2022/11/08 07:20:41;;;;;;;4.17;1.97;;;9.90;99.90;;;;;;6072231;23;20156;-48
2022/11/08 07:23:08;;;;;;;4.93;2.03;;;9.90;99.90;;;;;;6061755;23;20315;-48
2022/11/08 07:25:34;;;;;;;6.33;1.97;;;9.90;99.90;;;;;;6070177;23;20218;-48
2022/11/08 07:28:02;;;;;;;8.70;2.47;;;9.90;99.90;;;;;;6070633;23;20180;-48
2022/11/08 07:30:29;;;;;;;9.13;2.10;;;10.00;99.90;;;;;;6071886;23;20180;-48
2022/11/08 07:32:56;;;;;;;4.93;1.80;;;9.90;99.90;;;;;;6070833;23;20162;-49
2022/11/08 07:35:23;;;;;;;5.77;2.03;;;10.00;99.90;;;;;;6070348;23;20161;-47
2022/11/08 07:37:48;;;;;;;3.27;1.73;;;10.00;99.90;;;;;;6072200;23;20177;-48
2022/11/08 07:40:14;;;;;;;5.80;1.67;;;10.10;99.90;;;;;;6071274;23;20475;-48
2022/11/08 07:42:40;;;;;;;2.93;2.03;;;10.00;99.90;;;;;;6094764;23;20208;-48
2022/11/08 07:45:08;;;;;;;7.93;2.10;;;10.10;99.90;;;;;;6071798;23;20622;-48
2022/11/08 07:47:34;;;;;;;5.07;2.00;;;10.10;99.90;;;;;;6073494;23;20176;-47
2022/11/08 07:50:00;;;;;;;5.67;2.23;;;10.10;99.90;;;;;;6074573;23;20170;-48
2022/11/08 07:52:26;;;;;;;5.63;2.17;;;10.10;99.90;;;;;;6076010;23;20182;-48
2022/11/08 07:54:52;;;;;;;5.37;2.13;;;10.20;99.90;;;;;;6074684;23;20170;-48
2022/11/08 07:57:23;;;;;;;2.90;2.07;;;10.20;99.90;;;;;;6074754;23;20180;-48
2022/11/08 08:00:04;;;;;;;5.80;2.10;;;10.20;99.90;;;;;;6075876;23;20136;-48
2022/11/08 08:18:06;;;;;;;2.73;1.77;;;10.60;99.90;;;;;;6117229;23;20197;-48
2022/11/08 08:20:42;;;;;;;3.27;1.97;;;10.70;99.90;;;;;;6113674;23;20237;-44
2022/11/08 08:23:10;;;;;;;3.67;1.80;;;10.70;99.90;;;;;;6113542;23;20162;-41
2022/11/08 08:25:40;;;;;;;3.93;1.77;;;10.80;99.90;;;;;;6137984;23;20320;-44
2022/11/08 08:32:00;;;;;;;5.40;1.67;;;10.90;99.90;;;;;;6167454;23;20220;-44
2022/11/08 08:34:38;;;;;;;2.23;1.57;;;10.90;99.90;;;;;;6162636;23;20163;-44
2022/11/08 08:40:32;;;;;;;2.93;1.63;;;11.10;99.90;;;;;;6164303;23;20163;-43
2022/11/08 08:43:03;;;;;;;4.57;1.43;;;11.20;99.90;;;;;;6112488;23;20166;-43
2022/11/08 08:45:32;;;;;;;3.30;1.53;;;11.30;99.90;;;;;;6113757;23;20168;-43
2022/11/08 08:48:37;;;;;;;3.03;1.60;;;11.40;99.90;;;;;;6139270;23;20177;-43
2022/11/08 08:51:11;;;;;;;2.50;1.70;;;11.40;99.90;;;;;;6136435;23;20626;-43
2022/11/08 08:57:36;;;;;;;5.77;2.20;;;11.60;99.90;;;;;;6008054;23;20177;-43
2022/11/08 10:06:50;;;;;;;3.07;1.73;;;13.60;99.90;;;;;;6172794;23;20646;-42
2022/11/08 10:09:34;;;;;;;2.67;1.77;;;13.70;99.90;;;;;;6156579;23;20205;-40
2022/11/08 10:12:17;;;;;;;4.60;1.63;;;13.70;99.90;;;;;;6130152;23;20185;-40
2022/11/08 10:15:11;;;;;;;4.07;1.53;;;13.90;99.90;;;;;;6130258;23;20678;-43
2022/11/08 10:18:02;;;;;;;4.37;1.70;;;14.00;99.90;;;;;;6156553;23;20205;-43
2022/11/08 10:21:03;;;;;;;2.20;1.63;;;14.10;99.90;;;;;;6156315;23;20142;-44
2022/11/08 10:23:42;;;;;;;2.43;1.20;;;14.20;99.90;;;;;;6140316;23;20184;-43
2022/11/08 10:26:19;;;;;;;3.10;1.50;;;14.20;99.90;;;;;;6129999;23;20161;-43
2022/11/08 10:28:49;;;;;;;3.23;1.40;;;14.30;99.90;;;;;;6156081;23;20177;-42
2022/11/08 10:31:17;;;;;;;1.63;1.37;;;14.40;99.90;;;;;;6156421;23;20607;-41
2022/11/08 10:33:49;;;;;;;5.83;1.40;;;14.50;99.90;;;;;;6156143;23;20154;-46
2022/11/08 10:36:37;;;;;;;2.07;1.20;;;14.60;99.90;;;;;;6156471;23;20150;-44
2022/11/08 10:39:08;;;;;;;3.00;1.10;;;14.70;99.90;;;;;;6156106;23;20178;-42
2022/11/08 10:41:48;;;;;;;4.47;1.53;;;14.80;99.90;;;;;;6156119;23;20181;-43
2022/11/08 10:44:20;;;;;;;2.87;1.50;;;14.90;99.90;;;;;;6130091;23;20149;-42
2022/11/08 10:46:45;;;;;;;2.87;1.60;;;15.00;99.90;;;;;;6156096;23;20471;-44
2022/11/08 10:49:19;;;;;;;5.13;1.77;;;15.10;99.90;;;;;;6155984;23;20180;-45
2022/11/08 10:51:47;;;;;;;4.23;1.90;;;15.30;99.90;;;;;;6156009;23;20631;-46
2022/11/08 10:54:42;;;;;;;9.03;1.60;;;15.40;99.90;;;;;;6156067;23;20228;-44
2022/11/08 10:57:09;;;;;;;5.03;1.60;;;15.50;99.90;;;;;;6156140;23;20150;-44
2022/11/08 10:59:35;;;;;;;2.13;1.37;;;15.60;99.90;;;;;;6155910;23;20608;-44
2022/11/08 11:02:01;;;;;;;3.33;1.40;;;15.70;99.90;;;;;;6155870;23;20157;-45
2022/11/08 11:04:29;;;;;;;5.40;1.50;;;15.80;99.90;;;;;;6155978;23;20160;-44
2022/11/08 11:07:01;;;;;;;3.53;1.80;;;15.90;99.90;;;;;;6155913;23;20180;-45
2022/11/08 11:09:27;;;;;;;3.53;1.70;;;16.00;99.90;;;;;;6156280;23;20222;-45
2022/11/08 11:12:06;;;;;;;5.03;1.80;;;16.00;99.90;;;;;;6155998;23;20239;-43
2022/11/08 11:14:32;;;;;;;2.87;1.67;;;16.00;99.90;;;;;;6156345;23;20138;-45
2022/11/08 11:17:06;;;;;;;6.07;1.97;;;15.90;99.90;;;;;;6156555;23;20149;-45
2022/11/08 11:19:33;;;;;;;4.93;1.80;;;15.90;99.90;;;;;;6158369;23;20145;-45
2022/11/08 11:22:07;;;;;;;2.90;1.40;;;15.90;99.90;;;;;;6157962;23;20155;-45
2022/11/08 11:24:34;;;;;;;2.40;1.40;;;15.90;99.90;;;;;;6158096;23;20159;-43
2022/11/08 11:27:06;;;;;;;6.90;1.50;;;15.90;99.90;;;;;;6157951;23;20154;-43
2022/11/08 11:29:34;;;;;;;2.10;1.30;;;15.90;99.90;;;;;;6158326;23;20479;-44
2022/11/08 11:32:33;;;;;;;4.03;1.20;;;15.90;99.90;;;;;;6158106;23;20284;-45
2022/11/08 11:35:01;;;;;;;5.97;1.20;;;16.10;99.90;;;;;;6120246;23;20157;-45
2022/11/08 11:37:28;;;;;;;2.23;1.10;;;16.10;99.90;;;;;;6157668;23;20177;-46
2022/11/08 11:40:13;;;;;;;2.17;1.30;;;16.20;99.90;;;;;;6158712;23;20477;-45
2022/11/08 11:43:10;;;;;;;2.23;1.03;;;16.30;99.90;;;;;;6158060;23;20165;-43
2022/11/08 11:45:50;;;;;;;4.67;1.33;;;16.40;99.90;;;;;;6158087;23;20149;-43
2022/11/08 11:48:25;;;;;;;2.30;1.13;;;16.50;99.90;;;;;;6157763;23;20181;-45
2022/11/08 11:50:50;;;;;;;2.63;1.10;;;16.60;99.90;;;;;;6157997;23;20142;-45
2022/11/08 11:53:16;;;;;;;2.40;1.20;;;16.60;99.90;;;;;;6131643;23;20618;-41
2022/11/08 11:56:06;;;;;;;1.63;1.03;;;16.70;99.90;;;;;;6158030;23;20580;-41
2022/11/08 11:58:55;;;;;;;3.40;1.10;;;16.90;99.90;;;;;;6157901;23;20554;-44
2022/11/08 12:01:59;;;;;;;2.40;1.00;;;17.00;99.90;;;;;;6131525;23;20197;-41
2022/11/08 12:04:50;;;;;;;3.17;1.30;;;17.20;99.90;;;;;;6112585;23;20165;-44
2022/11/08 12:07:34;;;;;;;4.00;1.67;;;17.40;99.90;;;;;;6157756;23;20228;-44
2022/11/08 12:10:34;;;;;;;3.77;1.30;;;17.50;99.90;;;;;;6157918;23;20142;-43
2022/11/08 12:13:12;;;;;;;2.40;1.23;;;17.50;99.90;;;;;;6092492;23;20224;-43
2022/11/08 12:15:59;;;;;;;2.40;1.20;;;17.60;99.90;;;;;;6157590;23;20150;-45
2022/11/08 12:18:38;;;;;;;2.43;1.20;;;17.60;99.90;;;;;;6157587;23;20656;-45
2022/11/08 12:21:47;;;;;;;3.63;1.20;;;17.60;99.90;;;;;;6157688;23;20478;-43
2022/11/08 12:24:24;;;;;;;5.27;1.20;;;17.60;99.90;;;;;;6143433;23;20166;-43
2022/11/08 12:26:55;;;;;;;2.60;1.30;;;17.50;99.90;;;;;;6157864;23;20180;-43
2022/11/08 12:29:52;;;;;;;6.20;1.20;;;17.50;99.90;;;;;;6157060;23;20170;-50
2022/11/08 12:32:26;;;;;;;2.63;1.10;;;17.50;99.90;;;;;;6112266;23;20204;-49
2022/11/08 12:34:58;;;;;;;2.37;1.07;;;17.50;99.90;;;;;;6157782;23;20476;-50
2022/11/08 12:37:48;;;;;;;4.83;1.10;;;17.50;99.90;;;;;;6157167;23;20231;-49
2022/11/08 12:40:20;;;;;;;4.00;1.30;;;17.50;99.90;;;;;;6157486;23;20238;-50
2022/11/08 12:42:51;;;;;;;4.33;1.20;;;17.50;99.90;;;;;;6157187;23;20204;-50
2022/11/08 12:45:20;;;;;;;1.90;1.07;;;17.50;99.90;;;;;;6157551;23;20145;-50
2022/11/08 12:47:55;;;;;;;4.60;1.27;;;17.40;99.90;;;;;;6157023;23;20184;-49
2022/11/08 12:50:24;;;;;;;3.60;1.40;;;17.30;99.90;;;;;;6157119;23;20596;-50
2022/11/08 12:53:28;;;;;;;2.67;1.10;;;17.30;99.90;;;;;;6157263;23;20186;-50
2022/11/08 12:55:56;;;;;;;3.93;1.10;;;17.30;99.90;;;;;;6157371;23;20141;-50
2022/11/08 12:58:26;;;;;;;1.93;1.10;;;17.30;99.90;;;;;;6156898;23;20181;-50
2022/11/08 13:00:58;;;;;;;1.67;1.27;;;17.30;99.90;;;;;;6157356;23;20220;-50
2022/11/08 13:03:41;;;;;;;3.57;1.27;;;17.20;99.90;;;;;;6156912;23;20146;-49
2022/11/08 13:06:11;;;;;;;3.33;1.10;;;17.20;99.90;;;;;;6156704;23;20244;-52
2022/11/08 13:08:57;;;;;;;2.87;1.30;;;17.30;99.90;;;;;;6157134;23;20173;-50
2022/11/08 13:11:39;;;;;;;2.17;1.23;;;17.30;99.90;;;;;;6157037;23;20170;-49
2022/11/08 13:14:11;;;;;;;3.17;1.23;;;17.20;99.90;;;;;;6156797;23;20266;-53
2022/11/08 13:16:40;;;;;;;1.67;1.00;;;17.20;99.90;;;;;;6157185;23;20217;-50
2022/11/08 13:19:24;;;;;;;2.00;1.00;;;17.20;99.90;;;;;;6156705;23;20195;-50
2022/11/08 13:21:50;;;;;;;2.57;1.20;;;17.10;99.90;;;;;;6157104;23;20157;-50
2022/11/08 13:24:16;;;;;;;3.13;1.30;;;17.10;99.90;;;;;;6157006;23;20193;-51
2022/11/08 13:26:42;;;;;;;3.40;1.33;;;17.00;99.90;;;;;;6157164;23;20165;-50
2022/11/08 13:29:22;;;;;;;2.67;1.20;;;17.00;99.90;;;;;;6156968;23;20181;-48
2022/11/08 13:31:52;;;;;;;2.13;1.10;;;17.00;99.90;;;;;;6157234;23;20256;-50
2022/11/08 13:34:41;;;;;;;1.40;1.00;;;17.00;99.90;;;;;;6157193;23;20197;-51
2022/11/08 13:37:35;;;;;;;1.93;1.10;;;17.00;99.90;;;;;;6156959;23;20142;-52
2022/11/08 13:40:25;;;;;;;1.93;1.17;;;17.00;99.90;;;;;;6130936;23;20220;-50
2022/11/08 13:43:22;;;;;;;4.03;1.40;;;17.00;99.90;;;;;;6130485;23;20150;-49
2022/11/08 13:45:48;;;;;;;1.23;0.90;;;17.00;99.90;;;;;;6156547;23;20212;-51
2022/11/08 13:48:16;;;;;;;1.27;0.77;;;17.00;99.90;;;;;;6156847;23;20212;-50
2022/11/08 13:50:50;;;;;;;2.57;1.10;;;16.90;99.90;;;;;;6156403;23;20157;-52
2022/11/08 13:53:18;;;;;;;1.83;1.10;;;17.00;99.90;;;;;;6158246;23;20145;-49
2022/11/08 13:55:49;;;;;;;1.17;0.93;;;16.90;99.90;;;;;;6160432;23;20197;-49
2022/11/08 13:58:34;;;;;;;2.33;1.20;;;16.90;99.90;;;;;;6160029;23;20228;-49
2022/11/08 14:01:31;;;;;;;4.83;1.23;;;16.80;99.90;;;;;;6160162;23;20213;-49
2022/11/08 14:03:58;;;;;;;2.53;1.23;;;16.80;99.90;;;;;;6117098;23;20165;-50
2022/11/08 14:06:55;;;;;;;3.20;1.00;;;16.70;99.90;;;;;;6160219;23;20170;-49
2022/11/08 14:09:24;;;;;;;4.43;1.30;;;16.70;99.90;;;;;;6160451;23;20245;-49
2022/11/08 14:12:27;;;;;;;1.43;0.93;;;16.70;99.90;;;;;;6160294;23;20188;-51
2022/11/08 14:14:58;;;;;;;3.23;1.10;;;16.60;99.90;;;;;;6159218;23;20177;-48
2022/11/08 14:17:44;;;;;;;3.83;1.73;;;16.50;99.90;;;;;;6160277;23;20180;-51
2022/11/08 14:20:36;;;;;;;3.13;1.20;;;16.50;99.90;;;;;;6160060;23;20249;-49
2022/11/08 14:23:13;;;;;;;4.07;1.13;;;16.40;99.90;;;;;;6120955;23;20158;-50
2022/11/08 14:25:39;;;;;;;3.13;0.90;;;16.40;99.90;;;;;;6161299;23;20138;-49
2022/11/08 14:28:28;;;;;;;1.53;0.93;;;16.40;99.90;;;;;;6159710;23;20173;-50
2022/11/08 14:30:54;;;;;;;3.40;1.10;;;16.40;99.90;;;;;;6160901;23;20146;-49
2022/11/08 14:33:23;;;;;;;2.93;1.07;;;16.40;99.90;;;;;;6161051;23;20176;-49
2022/11/08 14:35:56;;;;;;;3.13;1.00;;;16.50;99.90;;;;;;6159573;23;20225;-49
2022/11/08 14:38:21;;;;;;;6.03;1.20;;;16.50;99.90;;;;;;6159765;23;20177;-48
2022/11/08 14:40:59;;;;;;;3.30;1.20;;;16.50;99.90;;;;;;6159467;23;20138;-49
2022/11/08 14:43:26;;;;;;;8.73;1.40;;;16.50;99.90;;;;;;6158989;23;20197;-50
2022/11/08 14:45:52;;;;;;;3.10;1.40;;;16.40;99.90;;;;;;6158739;23;20568;-50
2022/11/08 14:48:28;;;;;;;3.10;1.20;;;16.40;99.90;;;;;;6160336;23;20181;-51
2022/11/08 14:51:01;;;;;;;2.67;1.47;;;16.40;99.90;;;;;;6160224;23;20161;-50
2022/11/08 14:53:29;;;;;;;3.37;1.70;;;16.40;99.90;;;;;;6134459;23;20200;-49
2022/11/08 14:56:01;;;;;;;5.27;1.40;;;16.40;99.90;;;;;;6159918;23;20150;-50
2022/11/08 14:58:27;;;;;;;2.27;1.00;;;16.40;99.90;;;;;;6136875;23;20185;-50